sensor_id;sensor_type;location;lat;lon;timestamp;P1;durP1;ratioP1;P2;durP2;ratioP2
15573;SDS011;7888;46.748;8.102;2022-08-07T00:01:35;1.40;;;1.30;;
15573;SDS011;7888;46.748;8.102;2022-08-07T00:04:01;1.38;;;1.27;;
15573;SDS011;7888;46.748;8.102;2022-08-07T00:06:28;1.42;;;1.33;;
15573;SDS011;7888;46.748;8.102;2022-08-07T00:08:54;1.58;;;1.48;;
15573;SDS011;7888;46.748;8.102;2022-08-07T00:11:20;1.55;;;1.45;;
15573;SDS011;7888;46.748;8.102;2022-08-07T00:13:46;1.52;;;1.42;;
15573;SDS011;7888;46.748;8.102;2022-08-07T00:16:12;2.05;;;1.95;;
15573;SDS011;7888;46.748;8.102;2022-08-07T00:18:38;1.80;;;1.70;;
15573;SDS011;7888;46.748;8.102;2022-08-07T00:21:05;2.35;;;1.05;;
15573;SDS011;7888;46.748;8.102;2022-08-07T00:23:34;0.90;;;0.90;;
15573;SDS011;7888;46.748;8.102;2022-08-07T00:26:03;2.45;;;1.20;;
15573;SDS011;7888;46.748;8.102;2022-08-07T00:28:31;1.35;;;1.25;;
15573;SDS011;7888;46.748;8.102;2022-08-07T00:30:58;2.80;;;2.60;;
15573;SDS011;7888;46.748;8.102;2022-08-07T00:33:26;3.28;;;3.00;;
15573;SDS011;7888;46.748;8.102;2022-08-07T00:35:55;4.20;;;3.03;;
15573;SDS011;7888;46.748;8.102;2022-08-07T00:38:22;3.75;;;3.45;;
15573;SDS011;7888;46.748;8.102;2022-08-07T00:40:48;3.60;;;3.30;;
15573;SDS011;7888;46.748;8.102;2022-08-07T00:43:14;2.83;;;2.63;;
15573;SDS011;7888;46.748;8.102;2022-08-07T00:45:41;2.22;;;1.95;;
15573;SDS011;7888;46.748;8.102;2022-08-07T00:48:08;2.30;;;1.75;;
15573;SDS011;7888;46.748;8.102;2022-08-07T00:50:35;1.50;;;1.40;;
15573;SDS011;7888;46.748;8.102;2022-08-07T00:53:03;3.70;;;3.40;;
15573;SDS011;7888;46.748;8.102;2022-08-07T00:55:29;3.72;;;2.95;;
15573;SDS011;7888;46.748;8.102;2022-08-07T00:57:55;2.38;;;2.17;;
15573;SDS011;7888;46.748;8.102;2022-08-07T01:00:22;4.55;;;3.00;;
15573;SDS011;7888;46.748;8.102;2022-08-07T01:02:48;3.83;;;2.88;;
15573;SDS011;7888;46.748;8.102;2022-08-07T01:05:14;2.38;;;2.17;;
15573;SDS011;7888;46.748;8.102;2022-08-07T01:07:41;2.60;;;2.40;;
15573;SDS011;7888;46.748;8.102;2022-08-07T01:10:08;3.13;;;2.60;;
15573;SDS011;7888;46.748;8.102;2022-08-07T01:12:34;2.33;;;2.13;;
15573;SDS011;7888;46.748;8.102;2022-08-07T01:15:03;1.30;;;1.20;;
15573;SDS011;7888;46.748;8.102;2022-08-07T01:17:30;1.65;;;1.08;;
15573;SDS011;7888;46.748;8.102;2022-08-07T01:20:04;1.02;;;1.02;;
15573;SDS011;7888;46.748;8.102;2022-08-07T01:22:35;0.82;;;0.82;;
15573;SDS011;7888;46.748;8.102;2022-08-07T01:25:03;1.20;;;1.10;;
15573;SDS011;7888;46.748;8.102;2022-08-07T01:27:30;2.03;;;1.10;;
15573;SDS011;7888;46.748;8.102;2022-08-07T01:29:56;2.63;;;1.25;;
15573;SDS011;7888;46.748;8.102;2022-08-07T01:32:23;2.08;;;0.98;;
15573;SDS011;7888;46.748;8.102;2022-08-07T01:34:49;0.90;;;0.90;;
15573;SDS011;7888;46.748;8.102;2022-08-07T01:37:16;1.42;;;0.98;;
15573;SDS011;7888;46.748;8.102;2022-08-07T01:39:48;0.90;;;0.90;;
15573;SDS011;7888;46.748;8.102;2022-08-07T01:42:14;0.90;;;0.90;;
15573;SDS011;7888;46.748;8.102;2022-08-07T01:44:41;1.50;;;1.40;;
15573;SDS011;7888;46.748;8.102;2022-08-07T01:47:08;1.38;;;1.27;;
15573;SDS011;7888;46.748;8.102;2022-08-07T01:49:35;1.35;;;1.25;;
15573;SDS011;7888;46.748;8.102;2022-08-07T01:52:02;1.15;;;1.05;;
15573;SDS011;7888;46.748;8.102;2022-08-07T01:54:32;1.00;;;1.00;;
15573;SDS011;7888;46.748;8.102;2022-08-07T01:57:14;1.10;;;1.00;;
15573;SDS011;7888;46.748;8.102;2022-08-07T01:59:47;1.08;;;0.98;;
15573;SDS011;7888;46.748;8.102;2022-08-07T02:02:21;1.00;;;1.00;;
15573;SDS011;7888;46.748;8.102;2022-08-07T02:04:57;0.90;;;0.90;;
15573;SDS011;7888;46.748;8.102;2022-08-07T02:07:31;0.80;;;0.80;;
15573;SDS011;7888;46.748;8.102;2022-08-07T02:10:03;1.42;;;1.10;;
15573;SDS011;7888;46.748;8.102;2022-08-07T02:12:32;1.02;;;0.98;;
15573;SDS011;7888;46.748;8.102;2022-08-07T02:15:06;0.85;;;0.85;;
15573;SDS011;7888;46.748;8.102;2022-08-07T02:17:34;1.10;;;1.00;;
15573;SDS011;7888;46.748;8.102;2022-08-07T02:20:05;1.92;;;1.10;;
15573;SDS011;7888;46.748;8.102;2022-08-07T02:22:34;1.90;;;1.70;;
15573;SDS011;7888;46.748;8.102;2022-08-07T02:25:04;3.40;;;1.75;;
15573;SDS011;7888;46.748;8.102;2022-08-07T02:27:34;1.70;;;1.60;;
15573;SDS011;7888;46.748;8.102;2022-08-07T02:30:03;2.25;;;1.30;;
15573;SDS011;7888;46.748;8.102;2022-08-07T02:32:30;2.17;;;1.98;;
15573;SDS011;7888;46.748;8.102;2022-08-07T02:35:00;2.33;;;2.20;;
15573;SDS011;7888;46.748;8.102;2022-08-07T02:37:29;2.88;;;2.47;;
15573;SDS011;7888;46.748;8.102;2022-08-07T02:40:02;1.75;;;1.65;;
15573;SDS011;7888;46.748;8.102;2022-08-07T02:42:31;2.17;;;1.35;;
15573;SDS011;7888;46.748;8.102;2022-08-07T02:44:59;1.88;;;1.60;;
15573;SDS011;7888;46.748;8.102;2022-08-07T02:47:29;1.63;;;1.52;;
15573;SDS011;7888;46.748;8.102;2022-08-07T02:49:56;1.58;;;1.42;;
15573;SDS011;7888;46.748;8.102;2022-08-07T02:52:24;2.40;;;2.20;;
15573;SDS011;7888;46.748;8.102;2022-08-07T02:54:59;2.55;;;2.35;;
15573;SDS011;7888;46.748;8.102;2022-08-07T02:57:35;3.45;;;1.65;;
15573;SDS011;7888;46.748;8.102;2022-08-07T03:00:04;3.90;;;3.60;;
15573;SDS011;7888;46.748;8.102;2022-08-07T03:02:31;3.10;;;2.90;;
15573;SDS011;7888;46.748;8.102;2022-08-07T03:05:00;3.33;;;3.03;;
15573;SDS011;7888;46.748;8.102;2022-08-07T03:07:28;3.13;;;2.92;;
15573;SDS011;7888;46.748;8.102;2022-08-07T03:09:55;3.28;;;3.03;;
15573;SDS011;7888;46.748;8.102;2022-08-07T03:12:22;3.30;;;3.08;;
15573;SDS011;7888;46.748;8.102;2022-08-07T03:14:48;3.28;;;3.00;;
15573;SDS011;7888;46.748;8.102;2022-08-07T03:17:15;2.67;;;2.47;;
15573;SDS011;7888;46.748;8.102;2022-08-07T03:19:42;3.28;;;2.22;;
15573;SDS011;7888;46.748;8.102;2022-08-07T03:22:07;3.13;;;2.67;;
15573;SDS011;7888;46.748;8.102;2022-08-07T03:24:34;3.45;;;2.72;;
15573;SDS011;7888;46.748;8.102;2022-08-07T03:27:01;3.05;;;2.85;;
15573;SDS011;7888;46.748;8.102;2022-08-07T03:29:34;2.70;;;2.50;;
15573;SDS011;7888;46.748;8.102;2022-08-07T03:32:06;2.00;;;1.90;;
15573;SDS011;7888;46.748;8.102;2022-08-07T03:34:37;1.95;;;1.83;;
15573;SDS011;7888;46.748;8.102;2022-08-07T03:37:05;1.50;;;1.40;;
15573;SDS011;7888;46.748;8.102;2022-08-07T03:39:34;1.55;;;1.45;;
15573;SDS011;7888;46.748;8.102;2022-08-07T03:42:03;1.92;;;1.60;;
15573;SDS011;7888;46.748;8.102;2022-08-07T03:44:32;1.30;;;1.20;;
15573;SDS011;7888;46.748;8.102;2022-08-07T03:47:00;2.08;;;1.15;;
15573;SDS011;7888;46.748;8.102;2022-08-07T03:49:27;1.20;;;1.20;;
15573;SDS011;7888;46.748;8.102;2022-08-07T03:51:54;2.40;;;1.35;;
15573;SDS011;7888;46.748;8.102;2022-08-07T03:54:22;1.27;;;1.20;;
15573;SDS011;7888;46.748;8.102;2022-08-07T03:56:48;1.88;;;1.40;;
15573;SDS011;7888;46.748;8.102;2022-08-07T03:59:17;3.70;;;1.30;;
15573;SDS011;7888;46.748;8.102;2022-08-07T04:01:43;1.92;;;1.40;;
15573;SDS011;7888;46.748;8.102;2022-08-07T04:04:10;1.55;;;1.38;;
15573;SDS011;7888;46.748;8.102;2022-08-07T04:06:41;1.77;;;1.67;;
15573;SDS011;7888;46.748;8.102;2022-08-07T04:09:08;1.30;;;1.20;;
15573;SDS011;7888;46.748;8.102;2022-08-07T04:11:36;1.50;;;1.40;;
15573;SDS011;7888;46.748;8.102;2022-08-07T04:14:02;1.50;;;1.20;;
15573;SDS011;7888;46.748;8.102;2022-08-07T04:16:29;1.50;;;1.40;;
15573;SDS011;7888;46.748;8.102;2022-08-07T04:18:56;1.50;;;1.40;;
15573;SDS011;7888;46.748;8.102;2022-08-07T04:21:22;2.00;;;1.38;;
15573;SDS011;7888;46.748;8.102;2022-08-07T04:23:48;1.58;;;1.48;;
15573;SDS011;7888;46.748;8.102;2022-08-07T04:26:15;1.45;;;1.30;;
15573;SDS011;7888;46.748;8.102;2022-08-07T04:28:41;1.45;;;1.30;;
15573;SDS011;7888;46.748;8.102;2022-08-07T04:31:08;1.30;;;1.20;;
15573;SDS011;7888;46.748;8.102;2022-08-07T04:33:37;1.45;;;1.35;;
15573;SDS011;7888;46.748;8.102;2022-08-07T04:36:10;2.10;;;1.95;;
15573;SDS011;7888;46.748;8.102;2022-08-07T04:38:38;2.33;;;2.15;;
15573;SDS011;7888;46.748;8.102;2022-08-07T04:41:05;1.70;;;1.60;;
15573;SDS011;7888;46.748;8.102;2022-08-07T04:43:35;1.95;;;1.83;;
15573;SDS011;7888;46.748;8.102;2022-08-07T04:49:10;1.98;;;1.83;;
15573;SDS011;7888;46.748;8.102;2022-08-07T04:51:59;1.65;;;1.55;;
15573;SDS011;7888;46.748;8.102;2022-08-07T05:00:49;1.42;;;1.30;;
15573;SDS011;7888;46.748;8.102;2022-08-07T05:03:51;2.25;;;1.50;;
15573;SDS011;7888;46.748;8.102;2022-08-07T05:06:57;2.03;;;1.80;;
15573;SDS011;7888;46.748;8.102;2022-08-07T05:13:22;2.95;;;2.75;;
15573;SDS011;7888;46.748;8.102;2022-08-07T05:15:33;4.53;;;3.60;;
15573;SDS011;7888;46.748;8.102;2022-08-07T05:18:09;3.85;;;3.50;;
15573;SDS011;7888;46.748;8.102;2022-08-07T05:20:59;3.53;;;3.22;;
15573;SDS011;7888;46.748;8.102;2022-08-07T05:26:14;2.85;;;2.65;;
15573;SDS011;7888;46.748;8.102;2022-08-07T05:28:44;3.78;;;2.97;;
15573;SDS011;7888;46.748;8.102;2022-08-07T05:31:15;3.75;;;2.75;;
15573;SDS011;7888;46.748;8.102;2022-08-07T05:33:46;3.10;;;2.90;;
15573;SDS011;7888;46.748;8.102;2022-08-07T05:36:15;3.05;;;2.85;;
15573;SDS011;7888;46.748;8.102;2022-08-07T05:38:43;2.72;;;2.53;;
15573;SDS011;7888;46.748;8.102;2022-08-07T05:41:10;2.65;;;2.28;;
15573;SDS011;7888;46.748;8.102;2022-08-07T05:43:36;3.10;;;2.88;;
15573;SDS011;7888;46.748;8.102;2022-08-07T05:46:04;2.60;;;2.40;;
15573;SDS011;7888;46.748;8.102;2022-08-07T05:48:31;2.15;;;1.98;;
15573;SDS011;7888;46.748;8.102;2022-08-07T05:50:58;1.95;;;1.85;;
15573;SDS011;7888;46.748;8.102;2022-08-07T05:53:26;2.83;;;2.00;;
15573;SDS011;7888;46.748;8.102;2022-08-07T05:55:52;2.58;;;2.38;;
15573;SDS011;7888;46.748;8.102;2022-08-07T05:58:24;2.03;;;1.92;;
15573;SDS011;7888;46.748;8.102;2022-08-07T06:00:51;1.92;;;1.83;;
15573;SDS011;7888;46.748;8.102;2022-08-07T06:03:19;8.88;;;2.00;;
15573;SDS011;7888;46.748;8.102;2022-08-07T06:05:47;2.10;;;1.80;;
15573;SDS011;7888;46.748;8.102;2022-08-07T06:08:14;4.32;;;1.92;;
15573;SDS011;7888;46.748;8.102;2022-08-07T06:10:41;2.03;;;1.85;;
15573;SDS011;7888;46.748;8.102;2022-08-07T06:13:08;1.95;;;1.73;;
15573;SDS011;7888;46.748;8.102;2022-08-07T06:15:36;1.98;;;1.88;;
15573;SDS011;7888;46.748;8.102;2022-08-07T06:18:05;1.90;;;1.80;;
15573;SDS011;7888;46.748;8.102;2022-08-07T06:20:35;2.03;;;1.92;;
15573;SDS011;7888;46.748;8.102;2022-08-07T06:23:02;2.08;;;1.95;;
15573;SDS011;7888;46.748;8.102;2022-08-07T06:25:32;2.03;;;1.92;;
15573;SDS011;7888;46.748;8.102;2022-08-07T06:28:05;2.17;;;2.08;;
15573;SDS011;7888;46.748;8.102;2022-08-07T06:30:34;2.10;;;2.00;;
15573;SDS011;7888;46.748;8.102;2022-08-07T06:33:02;2.53;;;2.33;;
15573;SDS011;7888;46.748;8.102;2022-08-07T06:35:30;2.40;;;2.20;;
15573;SDS011;7888;46.748;8.102;2022-08-07T06:37:58;2.33;;;2.13;;
15573;SDS011;7888;46.748;8.102;2022-08-07T06:40:24;2.40;;;2.20;;
15573;SDS011;7888;46.748;8.102;2022-08-07T06:42:54;2.38;;;2.25;;
15573;SDS011;7888;46.748;8.102;2022-08-07T06:45:22;2.70;;;2.50;;
15573;SDS011;7888;46.748;8.102;2022-08-07T06:47:49;2.15;;;1.95;;
15573;SDS011;7888;46.748;8.102;2022-08-07T06:50:15;3.42;;;2.33;;
15573;SDS011;7888;46.748;8.102;2022-08-07T06:52:43;3.97;;;2.45;;
15573;SDS011;7888;46.748;8.102;2022-08-07T06:55:17;2.42;;;2.22;;
15573;SDS011;7888;46.748;8.102;2022-08-07T06:57:48;3.25;;;2.95;;
15573;SDS011;7888;46.748;8.102;2022-08-07T07:00:16;3.20;;;2.90;;
15573;SDS011;7888;46.748;8.102;2022-08-07T07:02:43;4.32;;;2.90;;
15573;SDS011;7888;46.748;8.102;2022-08-07T07:05:12;3.03;;;2.83;;
15573;SDS011;7888;46.748;8.102;2022-08-07T07:07:38;4.68;;;3.08;;
15573;SDS011;7888;46.748;8.102;2022-08-07T07:10:05;2.90;;;2.70;;
15573;SDS011;7888;46.748;8.102;2022-08-07T07:15:15;2.80;;;2.60;;
15573;SDS011;7888;46.748;8.102;2022-08-07T07:18:20;3.25;;;2.95;;
15573;SDS011;7888;46.748;8.102;2022-08-07T07:20:54;3.25;;;3.05;;
15573;SDS011;7888;46.748;8.102;2022-08-07T07:23:25;3.03;;;2.72;;
15573;SDS011;7888;46.748;8.102;2022-08-07T07:25:54;3.50;;;3.20;;
15573;SDS011;7888;46.748;8.102;2022-08-07T07:28:27;3.13;;;2.90;;
15573;SDS011;7888;46.748;8.102;2022-08-07T07:31:31;2.88;;;2.67;;
15573;SDS011;7888;46.748;8.102;2022-08-07T07:34:05;3.35;;;3.05;;
15573;SDS011;7888;46.748;8.102;2022-08-07T07:36:37;3.53;;;2.85;;
15573;SDS011;7888;46.748;8.102;2022-08-07T07:39:05;3.40;;;2.67;;
15573;SDS011;7888;46.748;8.102;2022-08-07T07:41:34;3.13;;;2.90;;
15573;SDS011;7888;46.748;8.102;2022-08-07T07:44:03;2.83;;;2.63;;
15573;SDS011;7888;46.748;8.102;2022-08-07T07:46:33;2.70;;;2.50;;
15573;SDS011;7888;46.748;8.102;2022-08-07T07:49:01;3.17;;;2.97;;
15573;SDS011;7888;46.748;8.102;2022-08-07T07:51:29;2.97;;;2.67;;
15573;SDS011;7888;46.748;8.102;2022-08-07T07:53:58;3.22;;;2.92;;
15573;SDS011;7888;46.748;8.102;2022-08-07T07:56:26;8.23;;;3.00;;
15573;SDS011;7888;46.748;8.102;2022-08-07T07:58:55;2.80;;;2.60;;
15573;SDS011;7888;46.748;8.102;2022-08-07T08:01:25;2.90;;;2.70;;
15573;SDS011;7888;46.748;8.102;2022-08-07T08:03:54;3.95;;;3.20;;
15573;SDS011;7888;46.748;8.102;2022-08-07T08:06:26;3.10;;;2.80;;
15573;SDS011;7888;46.748;8.102;2022-08-07T08:08:54;2.88;;;2.67;;
15573;SDS011;7888;46.748;8.102;2022-08-07T08:11:24;3.17;;;2.97;;
15573;SDS011;7888;46.748;8.102;2022-08-07T08:13:50;2.95;;;2.75;;
15573;SDS011;7888;46.748;8.102;2022-08-07T08:16:17;2.90;;;2.70;;
15573;SDS011;7888;46.748;8.102;2022-08-07T08:18:47;3.13;;;2.88;;
15573;SDS011;7888;46.748;8.102;2022-08-07T08:21:17;3.08;;;2.78;;
15573;SDS011;7888;46.748;8.102;2022-08-07T08:24:03;2.65;;;2.45;;
15573;SDS011;7888;46.748;8.102;2022-08-07T08:26:50;2.70;;;2.50;;
15573;SDS011;7888;46.748;8.102;2022-08-07T08:29:46;2.20;;;2.10;;
15573;SDS011;7888;46.748;8.102;2022-08-07T08:32:23;2.67;;;2.47;;
15573;SDS011;7888;46.748;8.102;2022-08-07T08:34:51;2.63;;;2.42;;
15573;SDS011;7888;46.748;8.102;2022-08-07T08:37:20;3.20;;;2.70;;
15573;SDS011;7888;46.748;8.102;2022-08-07T08:39:49;2.63;;;2.42;;
15573;SDS011;7888;46.748;8.102;2022-08-07T08:42:37;3.05;;;2.85;;
15573;SDS011;7888;46.748;8.102;2022-08-07T08:48:23;3.10;;;2.80;;
15573;SDS011;7888;46.748;8.102;2022-08-07T08:52:10;2.70;;;2.50;;
15573;SDS011;7888;46.748;8.102;2022-08-07T08:54:25;2.80;;;2.60;;
15573;SDS011;7888;46.748;8.102;2022-08-07T08:57:06;2.72;;;2.53;;
15573;SDS011;7888;46.748;8.102;2022-08-07T08:59:46;2.90;;;2.70;;
15573;SDS011;7888;46.748;8.102;2022-08-07T09:02:40;2.65;;;2.45;;
15573;SDS011;7888;46.748;8.102;2022-08-07T09:05:33;2.70;;;2.50;;
15573;SDS011;7888;46.748;8.102;2022-08-07T09:14:03;2.95;;;2.65;;
15573;SDS011;7888;46.748;8.102;2022-08-07T09:19:21;3.22;;;2.92;;
15573;SDS011;7888;46.748;8.102;2022-08-07T09:28:06;3.58;;;2.72;;
15573;SDS011;7888;46.748;8.102;2022-08-07T09:31:01;2.78;;;2.58;;
15573;SDS011;7888;46.748;8.102;2022-08-07T09:33:46;3.15;;;2.47;;
15573;SDS011;7888;46.748;8.102;2022-08-07T09:36:42;2.20;;;2.10;;
15573;SDS011;7888;46.748;8.102;2022-08-07T09:40:04;2.10;;;1.95;;
15573;SDS011;7888;46.748;8.102;2022-08-07T09:51:29;2.13;;;2.03;;
15573;SDS011;7888;46.748;8.102;2022-08-07T09:54:17;2.67;;;2.47;;
15573;SDS011;7888;46.748;8.102;2022-08-07T10:00:04;2.05;;;1.95;;
15573;SDS011;7888;46.748;8.102;2022-08-07T10:05:24;2.35;;;2.15;;
15573;SDS011;7888;46.748;8.102;2022-08-07T10:11:42;2.13;;;1.92;;
15573;SDS011;7888;46.748;8.102;2022-08-07T10:14:40;2.45;;;2.25;;
15573;SDS011;7888;46.748;8.102;2022-08-07T10:41:05;2.40;;;2.28;;
15573;SDS011;7888;46.748;8.102;2022-08-07T10:44:11;2.13;;;2.03;;
15573;SDS011;7888;46.748;8.102;2022-08-07T10:46:59;1.65;;;1.55;;
15573;SDS011;7888;46.748;8.102;2022-08-07T10:49:36;2.55;;;2.35;;
15573;SDS011;7888;46.748;8.102;2022-08-07T10:52:11;2.55;;;2.35;;
15573;SDS011;7888;46.748;8.102;2022-08-07T10:55:07;2.35;;;2.25;;
15573;SDS011;7888;46.748;8.102;2022-08-07T11:06:35;2.85;;;2.65;;
15573;SDS011;7888;46.748;8.102;2022-08-07T11:10:02;2.58;;;2.38;;
15573;SDS011;7888;46.748;8.102;2022-08-07T11:12:45;3.15;;;2.72;;
15573;SDS011;7888;46.748;8.102;2022-08-07T11:15:42;2.50;;;2.30;;
15573;SDS011;7888;46.748;8.102;2022-08-07T11:18:19;3.20;;;2.67;;
15573;SDS011;7888;46.748;8.102;2022-08-07T11:20:57;2.63;;;2.42;;
15573;SDS011;7888;46.748;8.102;2022-08-07T11:23:38;2.90;;;2.70;;
15573;SDS011;7888;46.748;8.102;2022-08-07T11:26:34;3.08;;;2.88;;
15573;SDS011;7888;46.748;8.102;2022-08-07T11:32:03;2.72;;;2.53;;
15573;SDS011;7888;46.748;8.102;2022-08-07T11:34:55;2.78;;;2.58;;
15573;SDS011;7888;46.748;8.102;2022-08-07T11:46:10;2.85;;;2.65;;
15573;SDS011;7888;46.748;8.102;2022-08-07T11:51:46;2.65;;;2.45;;
15573;SDS011;7888;46.748;8.102;2022-08-07T11:55:07;2.78;;;2.58;;
15573;SDS011;7888;46.748;8.102;2022-08-07T11:57:28;2.72;;;2.53;;
15573;SDS011;7888;46.748;8.102;2022-08-07T12:05:21;2.60;;;2.40;;
15573;SDS011;7888;46.748;8.102;2022-08-07T12:08:10;2.13;;;2.03;;
15573;SDS011;7888;46.748;8.102;2022-08-07T12:10:47;2.30;;;1.98;;
15573;SDS011;7888;46.748;8.102;2022-08-07T12:16:27;2.47;;;2.28;;
15573;SDS011;7888;46.748;8.102;2022-08-07T12:19:04;2.63;;;2.42;;
15573;SDS011;7888;46.748;8.102;2022-08-07T12:21:56;1.98;;;1.88;;
15573;SDS011;7888;46.748;8.102;2022-08-07T12:31:04;2.17;;;2.08;;
15573;SDS011;7888;46.748;8.102;2022-08-07T12:33:37;2.75;;;2.30;;
15573;SDS011;7888;46.748;8.102;2022-08-07T12:36:06;3.15;;;2.63;;
15573;SDS011;7888;46.748;8.102;2022-08-07T12:38:35;2.72;;;2.38;;
15573;SDS011;7888;46.748;8.102;2022-08-07T12:41:04;2.17;;;2.03;;
15573;SDS011;7888;46.748;8.102;2022-08-07T12:43:33;2.75;;;2.55;;
15573;SDS011;7888;46.748;8.102;2022-08-07T12:46:05;2.72;;;2.03;;
15573;SDS011;7888;46.748;8.102;2022-08-07T12:48:57;2.38;;;2.17;;
15573;SDS011;7888;46.748;8.102;2022-08-07T12:51:27;2.20;;;2.00;;
15573;SDS011;7888;46.748;8.102;2022-08-07T12:54:07;1.95;;;1.85;;
15573;SDS011;7888;46.748;8.102;2022-08-07T12:56:47;1.92;;;1.80;;
15573;SDS011;7888;46.748;8.102;2022-08-07T12:59:17;2.33;;;2.22;;
15573;SDS011;7888;46.748;8.102;2022-08-07T13:05:08;1.90;;;1.80;;
15573;SDS011;7888;46.748;8.102;2022-08-07T13:11:07;2.72;;;2.33;;
15573;SDS011;7888;46.748;8.102;2022-08-07T13:14:02;1.80;;;1.70;;
15573;SDS011;7888;46.748;8.102;2022-08-07T13:16:47;2.40;;;2.20;;
15573;SDS011;7888;46.748;8.102;2022-08-07T13:19:42;2.13;;;2.00;;
15573;SDS011;7888;46.748;8.102;2022-08-07T13:22:25;2.33;;;2.13;;
15573;SDS011;7888;46.748;8.102;2022-08-07T13:25:02;2.40;;;2.20;;
15573;SDS011;7888;46.748;8.102;2022-08-07T13:27:58;2.25;;;2.15;;
15573;SDS011;7888;46.748;8.102;2022-08-07T13:31:03;2.33;;;2.20;;
15573;SDS011;7888;46.748;8.102;2022-08-07T14:07:55;1.88;;;1.77;;
15573;SDS011;7888;46.748;8.102;2022-08-07T14:10:24;2.42;;;2.22;;
15573;SDS011;7888;46.748;8.102;2022-08-07T14:12:54;2.42;;;2.22;;
15573;SDS011;7888;46.748;8.102;2022-08-07T14:17:56;2.17;;;2.08;;
15573;SDS011;7888;46.748;8.102;2022-08-07T14:21:02;2.08;;;1.83;;
15573;SDS011;7888;46.748;8.102;2022-08-07T14:23:36;2.17;;;1.98;;
15573;SDS011;7888;46.748;8.102;2022-08-07T14:26:12;2.08;;;1.98;;
15573;SDS011;7888;46.748;8.102;2022-08-07T14:28:45;1.95;;;1.85;;
15573;SDS011;7888;46.748;8.102;2022-08-07T14:31:13;2.33;;;2.13;;
15573;SDS011;7888;46.748;8.102;2022-08-07T14:33:41;1.90;;;1.80;;
15573;SDS011;7888;46.748;8.102;2022-08-07T14:36:10;3.00;;;2.80;;
15573;SDS011;7888;46.748;8.102;2022-08-07T14:38:38;4.97;;;4.55;;
15573;SDS011;7888;46.748;8.102;2022-08-07T14:41:09;3.20;;;2.95;;
15573;SDS011;7888;46.748;8.102;2022-08-07T14:43:42;2.00;;;1.90;;
15573;SDS011;7888;46.748;8.102;2022-08-07T14:46:11;2.00;;;1.90;;
15573;SDS011;7888;46.748;8.102;2022-08-07T14:48:43;2.17;;;1.88;;
15573;SDS011;7888;46.748;8.102;2022-08-07T14:51:21;1.85;;;1.70;;
15573;SDS011;7888;46.748;8.102;2022-08-07T14:53:57;3.25;;;2.95;;
15573;SDS011;7888;46.748;8.102;2022-08-07T14:56:26;2.22;;;2.08;;
15573;SDS011;7888;46.748;8.102;2022-08-07T14:59:02;1.80;;;1.70;;
15573;SDS011;7888;46.748;8.102;2022-08-07T15:01:32;1.50;;;1.40;;
15573;SDS011;7888;46.748;8.102;2022-08-07T15:04:03;1.73;;;1.63;;
15573;SDS011;7888;46.748;8.102;2022-08-07T15:06:31;7.90;;;7.10;;
15573;SDS011;7888;46.748;8.102;2022-08-07T15:09:04;3.33;;;3.03;;
15573;SDS011;7888;46.748;8.102;2022-08-07T15:11:39;2.42;;;2.22;;
15573;SDS011;7888;46.748;8.102;2022-08-07T15:14:24;3.15;;;2.85;;
15573;SDS011;7888;46.748;8.102;2022-08-07T15:17:00;3.45;;;3.15;;
15573;SDS011;7888;46.748;8.102;2022-08-07T15:19:52;7.03;;;6.35;;
15573;SDS011;7888;46.748;8.102;2022-08-07T15:22:27;7.15;;;6.45;;
15573;SDS011;7888;46.748;8.102;2022-08-07T15:25:08;5.32;;;4.82;;
15573;SDS011;7888;46.748;8.102;2022-08-07T15:27:40;3.58;;;3.28;;
15573;SDS011;7888;46.748;8.102;2022-08-07T15:30:09;2.42;;;2.28;;
15573;SDS011;7888;46.748;8.102;2022-08-07T15:32:41;1.67;;;1.58;;
15573;SDS011;7888;46.748;8.102;2022-08-07T15:35:13;4.85;;;4.35;;
15573;SDS011;7888;46.748;8.102;2022-08-07T15:37:47;2.20;;;2.10;;
15573;SDS011;7888;46.748;8.102;2022-08-07T15:40:17;2.88;;;2.17;;
15573;SDS011;7888;46.748;8.102;2022-08-07T15:42:48;2.28;;;2.13;;
15573;SDS011;7888;46.748;8.102;2022-08-07T15:48:01;1.30;;;1.20;;
15573;SDS011;7888;46.748;8.102;2022-08-07T15:50:54;1.35;;;1.25;;
15573;SDS011;7888;46.748;8.102;2022-08-07T15:53:28;1.15;;;1.10;;
15573;SDS011;7888;46.748;8.102;2022-08-07T15:56:31;1.27;;;1.05;;
15573;SDS011;7888;46.748;8.102;2022-08-07T15:59:02;1.30;;;1.17;;
15573;SDS011;7888;46.748;8.102;2022-08-07T16:01:33;1.20;;;1.10;;
15573;SDS011;7888;46.748;8.102;2022-08-07T16:04:09;1.40;;;1.30;;
15573;SDS011;7888;46.748;8.102;2022-08-07T16:06:40;1.73;;;1.35;;
15573;SDS011;7888;46.748;8.102;2022-08-07T16:17:26;1.35;;;1.25;;
15573;SDS011;7888;46.748;8.102;2022-08-07T16:25:48;1.52;;;1.42;;
15573;SDS011;7888;46.748;8.102;2022-08-07T16:28:44;1.95;;;1.40;;
15573;SDS011;7888;46.748;8.102;2022-08-07T16:32:24;1.08;;;1.08;;
15573;SDS011;7888;46.748;8.102;2022-08-07T16:34:57;1.40;;;1.30;;
15573;SDS011;7888;46.748;8.102;2022-08-07T16:37:44;1.40;;;1.30;;
15573;SDS011;7888;46.748;8.102;2022-08-07T16:46:27;1.65;;;1.40;;
15573;SDS011;7888;46.748;8.102;2022-08-07T16:52:42;1.25;;;1.15;;
15573;SDS011;7888;46.748;8.102;2022-08-07T16:55:31;1.60;;;1.50;;
15573;SDS011;7888;46.748;8.102;2022-08-07T16:58:28;1.52;;;1.42;;
15573;SDS011;7888;46.748;8.102;2022-08-07T17:02:14;2.35;;;1.70;;
15573;SDS011;7888;46.748;8.102;2022-08-07T17:07:59;1.98;;;1.70;;
15573;SDS011;7888;46.748;8.102;2022-08-07T17:10:29;1.67;;;1.58;;
15573;SDS011;7888;46.748;8.102;2022-08-07T17:18:39;1.60;;;1.50;;
15573;SDS011;7888;46.748;8.102;2022-08-07T17:21:22;1.63;;;1.42;;
15573;SDS011;7888;46.748;8.102;2022-08-07T17:27:12;2.20;;;1.48;;
15573;SDS011;7888;46.748;8.102;2022-08-07T17:32:35;2.17;;;1.58;;
15573;SDS011;7888;46.748;8.102;2022-08-07T17:35:38;1.83;;;1.65;;
15573;SDS011;7888;46.748;8.102;2022-08-07T17:43:27;2.25;;;1.83;;
15573;SDS011;7888;46.748;8.102;2022-08-07T17:46:07;3.50;;;1.95;;
15573;SDS011;7888;46.748;8.102;2022-08-07T17:51:43;1.85;;;1.75;;
15573;SDS011;7888;46.748;8.102;2022-08-07T17:54:27;1.75;;;1.65;;
15573;SDS011;7888;46.748;8.102;2022-08-07T18:00:08;1.92;;;1.83;;
15573;SDS011;7888;46.748;8.102;2022-08-07T18:02:40;2.28;;;2.08;;
15573;SDS011;7888;46.748;8.102;2022-08-07T18:05:30;2.72;;;1.98;;
15573;SDS011;7888;46.748;8.102;2022-08-07T18:11:05;1.92;;;1.83;;
15573;SDS011;7888;46.748;8.102;2022-08-07T18:13:48;2.17;;;1.58;;
15573;SDS011;7888;46.748;8.102;2022-08-07T18:18:56;1.77;;;1.67;;
15573;SDS011;7888;46.748;8.102;2022-08-07T18:21:35;1.73;;;1.60;;
15573;SDS011;7888;46.748;8.102;2022-08-07T18:24:06;2.38;;;1.58;;
15573;SDS011;7888;46.748;8.102;2022-08-07T18:35:20;2.53;;;2.33;;
15573;SDS011;7888;46.748;8.102;2022-08-07T18:41:02;2.05;;;1.92;;
15573;SDS011;7888;46.748;8.102;2022-08-07T18:53:32;2.22;;;2.03;;
15573;SDS011;7888;46.748;8.102;2022-08-07T18:56:30;3.28;;;2.03;;
15573;SDS011;7888;46.748;8.102;2022-08-07T19:07:54;2.50;;;2.30;;
15573;SDS011;7888;46.748;8.102;2022-08-07T19:18:10;2.15;;;1.65;;
15573;SDS011;7888;46.748;8.102;2022-08-07T19:21:12;2.65;;;2.30;;
15573;SDS011;7888;46.748;8.102;2022-08-07T19:23:49;2.50;;;2.30;;
15573;SDS011;7888;46.748;8.102;2022-08-07T19:26:22;2.90;;;1.92;;
15573;SDS011;7888;46.748;8.102;2022-08-07T19:28:59;2.38;;;2.17;;
15573;SDS011;7888;46.748;8.102;2022-08-07T19:31:33;2.33;;;2.13;;
15573;SDS011;7888;46.748;8.102;2022-08-07T19:34:04;2.00;;;1.90;;
15573;SDS011;7888;46.748;8.102;2022-08-07T19:36:41;2.72;;;1.80;;
15573;SDS011;7888;46.748;8.102;2022-08-07T19:39:12;1.77;;;1.67;;
15573;SDS011;7888;46.748;8.102;2022-08-07T19:41:45;2.40;;;2.20;;
15573;SDS011;7888;46.748;8.102;2022-08-07T19:44:17;2.47;;;2.00;;
15573;SDS011;7888;46.748;8.102;2022-08-07T19:47:06;1.70;;;1.60;;
15573;SDS011;7888;46.748;8.102;2022-08-07T19:49:42;1.80;;;1.70;;
15573;SDS011;7888;46.748;8.102;2022-08-07T19:52:14;2.38;;;2.10;;
15573;SDS011;7888;46.748;8.102;2022-08-07T19:54:45;2.30;;;2.10;;
15573;SDS011;7888;46.748;8.102;2022-08-07T19:57:14;2.22;;;2.03;;
15573;SDS011;7888;46.748;8.102;2022-08-07T19:59:45;2.33;;;2.03;;
15573;SDS011;7888;46.748;8.102;2022-08-07T20:02:24;1.88;;;1.77;;